TimeEST,TemperatureF,Dew PointF,Humidity,Sea Level PressureIn,VisibilityMPH,Wind Direction,Wind SpeedMPH,Gust SpeedMPH,PrecipitationIn,Events,Conditions,WindDirDegrees,DateUTC
12:54 AM,21.9,18.0,85,30.22,10.0,Calm,Calm,-,N/A,,Overcast,0,2012-12-12 05:54:00
1:54 AM,19.9,17.1,89,30.23,10.0,Calm,Calm,-,N/A,,Overcast,0,2012-12-12 06:54:00
2:54 AM,19.0,16.0,88,30.25,10.0,Calm,Calm,-,N/A,,Overcast,0,2012-12-12 07:54:00
3:28 AM,19.4,15.8,86,30.21,10.0,Calm,Calm,-,N/A,,Scattered Clouds,0,2012-12-12 08:28:00
3:54 AM,19.0,15.1,85,30.27,10.0,Calm,Calm,-,N/A,,Clear,0,2012-12-12 08:54:00
4:54 AM,17.1,14.0,88,30.28,10.0,Calm,Calm,-,N/A,,Mostly Cloudy,0,2012-12-12 09:54:00
5:54 AM,18.0,14.0,84,30.30,10.0,Calm,Calm,-,N/A,,Scattered Clouds,0,2012-12-12 10:54:00
6:54 AM,17.1,12.9,84,30.32,10.0,Calm,Calm,-,N/A,,Clear,0,2012-12-12 11:54:00
7:54 AM,17.1,12.9,84,30.35,8.0,Calm,Calm,-,N/A,,Clear,0,2012-12-12 12:54:00
8:54 AM,21.0,18.0,88,30.35,10.0,Calm,Calm,-,N/A,,Clear,0,2012-12-12 13:54:00
9:54 AM,25.0,19.9,81,30.35,10.0,Calm,Calm,-,N/A,,Partly Cloudy,0,2012-12-12 14:54:00
10:54 AM,30.0,25.0,82,30.35,10.0,Calm,Calm,-,N/A,,Mostly Cloudy,0,2012-12-12 15:54:00
11:54 AM,34.0,21.9,61,30.32,10.0,West,4.6,-,N/A,,Overcast,260,2012-12-12 16:54:00
12:54 PM,34.0,23.0,64,30.32,10.0,SSW,8.1,-,N/A,,Overcast,200,2012-12-12 17:54:00
1:54 PM,34.0,24.1,67,30.33,10.0,South,8.1,-,N/A,,Mostly Cloudy,190,2012-12-12 18:54:00
2:54 PM,35.1,21.9,59,30.35,10.0,Variable,5.8,-,N/A,,Scattered Clouds,0,2012-12-12 19:54:00
3:54 PM,34.0,23.0,64,30.36,10.0,Calm,Calm,-,N/A,,Mostly Cloudy,0,2012-12-12 20:54:00
4:54 PM,33.1,21.9,64,30.38,10.0,SW,4.6,-,N/A,,Overcast,230,2012-12-12 21:54:00
5:54 PM,33.1,23.0,66,30.38,10.0,SSW,5.8,-,N/A,,Overcast,210,2012-12-12 22:54:00
6:54 PM,32.0,23.0,69,30.38,10.0,WSW,3.5,-,N/A,,Overcast,240,2012-12-12 23:54:00
7:54 PM,28.9,24.1,82,30.39,10.0,Calm,Calm,-,N/A,,Mostly Cloudy,0,2012-12-13 00:54:00
8:54 PM,30.0,24.1,79,30.39,10.0,South,4.6,-,N/A,,Overcast,190,2012-12-13 01:54:00
9:54 PM,30.0,24.1,79,30.39,10.0,South,3.5,-,N/A,,Overcast,190,2012-12-13 02:54:00
10:54 PM,30.9,24.1,76,30.40,10.0,Calm,Calm,-,N/A,,Overcast,0,2012-12-13 03:54:00
11:54 PM,30.9,26.1,82,30.40,10.0,Calm,Calm,-,N/A,,Overcast,0,2012-12-13 04:54:00